createdAt,value
2017-11-18T00:01:36.850Z,5.55
2017-11-18T00:04:05.174Z,6.07
2017-11-18T00:06:34.264Z,4.53
2017-11-18T00:09:04.088Z,5.40
2017-11-18T00:11:32.414Z,5.05
2017-11-18T00:14:00.773Z,4.85
2017-11-18T00:16:29.062Z,5.37
2017-11-18T00:18:57.444Z,5.80
2017-11-18T00:21:25.745Z,4.55
2017-11-18T00:23:54.033Z,4.37
2017-11-18T00:26:22.713Z,6.33
2017-11-18T00:28:50.996Z,5.53
2017-11-18T00:31:19.384Z,4.87
2017-11-18T00:33:47.736Z,6.12
2017-11-18T00:36:16.029Z,7.37
2017-11-18T00:38:44.384Z,5.20
2017-11-18T00:41:12.673Z,4.57
2017-11-18T00:43:41.058Z,4.72
2017-11-18T00:46:09.453Z,3.93
2017-11-18T00:48:39.256Z,5.40
2017-11-18T00:51:07.854Z,4.70
2017-11-18T00:53:36.157Z,5.27
2017-11-18T00:56:04.485Z,4.90
2017-11-18T00:58:32.797Z,4.50
2017-11-18T01:01:01.081Z,5.03
2017-11-18T01:03:29.424Z,4.80
2017-11-18T01:05:58.480Z,4.93
2017-11-18T01:08:26.914Z,4.53
2017-11-18T01:10:56.737Z,5.30
2017-11-18T01:13:25.068Z,5.75
2017-11-18T01:15:53.438Z,3.80
2017-11-18T01:18:22.489Z,4.95
2017-11-18T01:20:50.812Z,4.80
2017-11-18T01:23:19.145Z,4.73
2017-11-18T01:25:47.498Z,5.87
2017-11-18T01:28:17.336Z,5.40
2017-11-18T01:30:46.416Z,6.40
2017-11-18T01:33:14.744Z,5.20
2017-11-18T01:35:43.797Z,4.67
2017-11-18T01:38:12.080Z,5.50
2017-11-18T01:40:40.418Z,4.18
2017-11-18T01:43:09.600Z,4.93
2017-11-18T01:45:38.106Z,4.90
2017-11-18T01:48:06.452Z,4.65
2017-11-18T01:50:35.181Z,5.20
2017-11-18T01:53:03.588Z,4.37
2017-11-18T01:55:31.876Z,5.17
2017-11-18T01:58:00.988Z,4.43
2017-11-18T02:00:29.267Z,5.50
2017-11-18T02:02:59.068Z,4.67
2017-11-18T02:05:27.504Z,5.50
2017-11-18T02:07:56.587Z,4.40
2017-11-18T02:10:24.879Z,4.30
2017-11-18T02:12:53.207Z,4.80
2017-11-18T02:15:21.580Z,4.43
2017-11-18T02:17:50.685Z,5.10
2017-11-18T02:20:19.740Z,4.45
2017-11-18T02:22:48.096Z,5.80
2017-11-18T02:25:17.143Z,4.33
2017-11-18T02:27:45.436Z,5.07
2017-11-18T02:30:13.978Z,4.43
2017-11-18T02:32:42.265Z,4.30
2017-11-18T02:35:11.370Z,5.70
2017-11-18T02:37:40.460Z,4.83
2017-11-18T02:40:08.752Z,4.57
2017-11-18T02:42:37.077Z,4.00
2017-11-18T02:45:06.128Z,3.17
2017-11-18T02:47:34.451Z,4.00
2017-11-18T02:50:02.729Z,3.60
2017-11-18T02:52:31.021Z,4.10
2017-11-18T02:54:59.324Z,3.67
2017-11-18T02:57:27.635Z,3.53
2017-11-18T02:59:55.993Z,3.35
2017-11-18T03:02:24.384Z,3.67
2017-11-18T03:04:52.671Z,3.40
2017-11-18T03:07:20.988Z,3.73
2017-11-18T03:09:49.285Z,4.65
2017-11-18T03:12:17.740Z,4.00
2017-11-18T03:14:46.024Z,4.60
2017-11-18T03:17:14.425Z,3.63
2017-11-18T03:19:42.742Z,4.35
2017-11-18T03:22:11.842Z,4.33
2017-11-18T03:24:40.926Z,3.23
2017-11-18T03:27:09.216Z,3.87
2017-11-18T03:29:37.506Z,6.03
2017-11-18T03:32:05.832Z,3.50
2017-11-18T03:34:34.169Z,4.55
2017-11-18T03:37:02.477Z,4.37
2017-11-18T03:39:30.764Z,3.83
2017-11-18T03:41:59.268Z,4.70
2017-11-18T03:44:28.377Z,4.23
2017-11-18T03:46:56.652Z,5.00
2017-11-18T03:49:24.989Z,3.80
2017-11-18T03:51:53.286Z,2.90
2017-11-18T03:54:21.618Z,3.63
2017-11-18T03:56:50.004Z,8.60
2017-11-18T03:59:18.303Z,3.95
2017-11-18T04:01:46.624Z,3.75
2017-11-18T04:04:14.939Z,3.83
2017-11-18T04:06:43.260Z,3.87
2017-11-18T04:09:11.584Z,4.23
2017-11-18T04:11:39.884Z,4.07
2017-11-18T04:14:09.425Z,4.55
2017-11-18T04:16:37.745Z,4.45
2017-11-18T04:19:06.198Z,5.82
2017-11-18T04:24:09.232Z,4.50
2017-11-18T04:26:37.569Z,4.73
2017-11-18T04:29:06.056Z,6.97
2017-11-18T04:31:36.821Z,5.43
2017-11-18T04:34:05.100Z,5.17
2017-11-18T04:36:33.601Z,6.30
2017-11-18T04:39:02.657Z,5.77
2017-11-18T04:41:30.949Z,5.60
2017-11-18T04:43:59.282Z,5.17
2017-11-18T04:46:27.564Z,6.23
2017-11-18T04:48:55.894Z,5.30
2017-11-18T04:51:24.949Z,4.47
2017-11-18T04:53:53.237Z,5.50
2017-11-18T04:56:21.608Z,6.10
2017-11-18T04:58:49.918Z,4.90
2017-11-18T05:01:18.232Z,6.20
2017-11-18T05:03:46.514Z,5.57
2017-11-18T05:06:14.822Z,5.50
2017-11-18T05:08:43.120Z,4.70
2017-11-18T05:11:11.446Z,7.35
2017-11-18T05:13:39.765Z,5.90
2017-11-18T05:16:08.089Z,6.47
2017-11-18T05:18:36.377Z,4.93
2017-11-18T05:21:04.707Z,5.10
2017-11-18T05:23:32.999Z,5.20
2017-11-18T05:26:01.292Z,5.57
2017-11-18T05:28:29.612Z,6.60
2017-11-18T05:30:57.916Z,4.73
2017-11-18T05:33:26.204Z,4.27
2017-11-18T05:35:55.287Z,6.17
2017-11-18T05:38:23.704Z,4.63
2017-11-18T05:40:52.792Z,5.00
2017-11-18T05:43:21.098Z,5.73
2017-11-18T05:45:50.185Z,5.60
2017-11-18T05:48:18.674Z,4.13
2017-11-18T05:50:47.075Z,7.50
2017-11-18T05:53:15.362Z,6.73
2017-11-18T05:55:43.668Z,5.77
2017-11-18T05:58:12.724Z,6.30
2017-11-18T06:00:41.081Z,5.70
2017-11-18T06:03:09.364Z,5.60
2017-11-18T06:05:38.420Z,6.27
2017-11-18T06:08:06.750Z,4.80
2017-11-18T06:10:35.843Z,7.77
2017-11-18T06:13:05.652Z,5.30
2017-11-18T06:15:33.985Z,7.43
2017-11-18T06:18:03.041Z,6.03
2017-11-18T06:20:31.451Z,5.47
2017-11-18T06:22:59.737Z,6.23
2017-11-18T06:25:28.048Z,6.73
2017-11-18T06:27:57.097Z,6.30
2017-11-18T06:30:25.942Z,6.75
2017-11-18T06:32:54.335Z,8.03
2017-11-18T06:35:22.628Z,13.27
2017-11-18T06:37:50.944Z,11.07
2017-11-18T06:40:19.275Z,13.93
2017-11-18T06:42:47.585Z,12.40
2017-11-18T06:45:17.420Z,13.67
2017-11-18T06:47:45.799Z,11.80
2017-11-18T06:50:14.088Z,12.30
2017-11-18T06:52:42.419Z,7.73
2017-11-18T06:55:10.713Z,7.40
2017-11-18T06:57:39.032Z,6.60
2017-11-18T07:00:07.315Z,6.33
2017-11-18T07:02:35.636Z,6.10
2017-11-18T07:05:03.934Z,5.83
2017-11-18T07:07:32.261Z,6.40
2017-11-18T07:10:00.572Z,6.17
2017-11-18T07:12:28.898Z,5.70
2017-11-18T07:14:57.410Z,7.50
2017-11-18T07:17:26.500Z,5.40
2017-11-18T07:19:54.792Z,5.30
2017-11-18T07:22:23.120Z,6.27
2017-11-18T07:24:51.400Z,5.10
2017-11-18T07:27:19.740Z,5.23
2017-11-18T07:29:48.052Z,5.57
2017-11-18T07:32:16.344Z,6.03
2017-11-18T07:34:44.660Z,6.30
2017-11-18T07:37:12.956Z,5.60
2017-11-18T07:39:41.261Z,5.07
2017-11-18T07:42:09.593Z,6.37
2017-11-18T07:44:37.971Z,5.13
2017-11-18T07:47:07.056Z,4.90
2017-11-18T07:49:35.361Z,5.03
2017-11-18T07:52:03.650Z,4.97
2017-11-18T07:54:31.951Z,5.13
2017-11-18T07:57:00.244Z,6.80
2017-11-18T07:59:28.558Z,5.57
2017-11-18T08:01:57.640Z,4.97
2017-11-18T08:04:26.032Z,5.30
2017-11-18T08:06:54.315Z,4.77
2017-11-18T08:09:22.602Z,4.87
2017-11-18T08:11:50.907Z,7.37
2017-11-18T08:14:19.229Z,4.83
2017-11-18T08:16:47.520Z,4.60
2017-11-18T08:19:15.796Z,5.17
2017-11-18T08:21:44.935Z,5.07
2017-11-18T08:24:13.252Z,5.03
2017-11-18T08:26:41.544Z,5.80
2017-11-18T08:29:09.885Z,6.40
2017-11-18T08:31:38.188Z,6.20
2017-11-18T08:34:06.624Z,5.60
2017-11-18T08:36:36.691Z,5.60
2017-11-18T08:39:05.865Z,5.50
2017-11-18T08:41:34.185Z,6.67
2017-11-18T08:44:03.260Z,6.17
2017-11-18T08:46:31.549Z,4.93
2017-11-18T08:48:59.872Z,4.40
2017-11-18T08:51:28.920Z,5.37
2017-11-18T08:53:57.217Z,4.20
2017-11-18T08:56:25.528Z,5.70
2017-11-18T08:58:55.357Z,5.20
2017-11-18T09:01:23.640Z,5.30
2017-11-18T09:03:51.924Z,5.93
2017-11-18T09:06:20.335Z,5.17
2017-11-18T09:08:48.632Z,5.97
2017-11-18T09:11:17.721Z,4.27
2017-11-18T09:13:46.104Z,4.97
2017-11-18T09:16:14.428Z,5.10
2017-11-18T09:18:43.487Z,5.00
2017-11-18T09:21:11.770Z,5.47
2017-11-18T09:23:40.085Z,5.67
2017-11-18T09:26:08.364Z,5.90
2017-11-18T09:28:36.769Z,6.30
2017-11-18T09:31:05.055Z,5.10
2017-11-18T09:33:33.452Z,6.63
2017-11-18T09:36:01.737Z,7.17
2017-11-18T09:38:30.059Z,5.10
2017-11-18T09:40:58.376Z,5.33
2017-11-18T09:43:26.666Z,5.47
2017-11-18T09:45:54.979Z,5.50
2017-11-18T09:48:23.304Z,7.10
2017-11-18T09:50:52.485Z,5.00
2017-11-18T09:53:20.793Z,5.90
2017-11-18T09:55:49.176Z,5.87
2017-11-18T09:58:19.098Z,5.87
2017-11-18T10:00:47.387Z,6.70
2017-11-18T10:03:15.675Z,7.30
2017-11-18T10:05:44.005Z,6.30
2017-11-18T10:08:12.343Z,6.60
2017-11-18T10:10:40.624Z,4.90
2017-11-18T10:13:08.896Z,7.57
2017-11-18T10:15:37.230Z,7.43
2017-11-18T10:18:05.610Z,6.90
2017-11-18T10:20:33.905Z,6.60
2017-11-18T10:23:02.226Z,6.20
2017-11-18T10:25:31.279Z,7.10
2017-11-18T10:27:59.591Z,6.07
2017-11-18T10:30:27.984Z,6.73
2017-11-18T10:32:56.305Z,7.87
2017-11-18T10:35:24.669Z,6.50
2017-11-18T10:37:52.956Z,6.60
2017-11-18T10:40:21.419Z,7.00
2017-11-18T10:42:49.746Z,6.77
2017-11-18T10:45:18.798Z,7.73
2017-11-18T10:47:47.113Z,6.97
2017-11-18T10:50:15.428Z,7.97
2017-11-18T10:52:43.805Z,9.50
2017-11-18T10:55:12.103Z,8.17
2017-11-18T10:57:41.213Z,6.43
2017-11-18T11:00:09.520Z,7.17
2017-11-18T11:02:38.580Z,6.70
2017-11-18T11:05:06.888Z,5.93
2017-11-18T11:07:35.167Z,5.53
2017-11-18T11:10:03.501Z,5.50
2017-11-18T11:12:32.540Z,5.20
2017-11-18T11:15:00.825Z,5.53
2017-11-18T11:17:29.144Z,5.90
2017-11-18T11:19:57.437Z,4.93
2017-11-18T11:22:25.840Z,4.93
2017-11-18T11:24:54.147Z,5.37
2017-11-18T11:27:23.201Z,4.63
2017-11-18T11:29:51.612Z,6.17
2017-11-18T11:32:19.901Z,4.63
2017-11-18T11:34:48.203Z,4.90
2017-11-18T11:37:16.501Z,5.90
2017-11-18T11:39:44.880Z,5.83
2017-11-18T11:42:13.157Z,4.27
2017-11-18T11:44:41.470Z,4.60
2017-11-18T11:47:09.784Z,4.20
2017-11-18T11:49:38.308Z,4.40
2017-11-18T11:52:06.629Z,4.20
2017-11-18T11:54:34.935Z,4.30
2017-11-18T11:57:03.988Z,3.77
2017-11-18T11:59:32.292Z,4.00
2017-11-18T12:02:00.576Z,4.60
2017-11-18T12:04:28.884Z,4.93
2017-11-18T12:06:57.170Z,4.37
2017-11-18T12:09:25.472Z,5.27
2017-11-18T12:11:54.034Z,4.53
2017-11-18T12:14:22.356Z,5.00
2017-11-18T12:16:50.688Z,3.90
2017-11-18T12:19:19.737Z,5.30
2017-11-18T12:21:48.037Z,4.40
2017-11-18T12:24:16.373Z,5.40
2017-11-18T12:26:44.724Z,5.30
2017-11-18T12:29:13.008Z,4.43
2017-11-18T12:31:41.325Z,4.67
2017-11-18T12:34:10.380Z,5.23
2017-11-18T12:36:38.692Z,4.97
2017-11-18T12:39:07.812Z,4.40
2017-11-18T12:41:36.112Z,5.20
2017-11-18T12:44:05.195Z,4.90
2017-11-18T12:46:33.473Z,4.70
2017-11-18T12:49:01.777Z,5.27
2017-11-18T12:51:30.234Z,5.70
2017-11-18T12:53:58.571Z,4.40
2017-11-18T12:56:27.056Z,5.60
2017-11-18T12:58:55.368Z,4.03
2017-11-18T13:01:24.471Z,4.13
2017-11-18T13:03:52.751Z,4.40
2017-11-18T13:06:21.040Z,3.97
2017-11-18T13:08:49.355Z,4.40
2017-11-18T13:11:17.636Z,4.00
2017-11-18T13:13:46.709Z,4.70
2017-11-18T13:16:14.992Z,4.60
2017-11-18T13:18:43.316Z,4.00
2017-11-18T13:21:11.612Z,4.60
2017-11-18T13:23:39.900Z,3.73
2017-11-18T13:26:08.981Z,4.00
2017-11-18T13:28:37.300Z,2.90
2017-11-18T13:31:06.801Z,4.10
2017-11-18T13:33:35.087Z,3.07
2017-11-18T13:36:03.368Z,4.57
2017-11-18T13:38:32.621Z,3.97
2017-11-18T13:41:00.924Z,3.87
2017-11-18T13:43:29.235Z,4.27
2017-11-18T13:45:57.552Z,3.30
2017-11-18T13:48:25.893Z,3.80
2017-11-18T13:50:54.207Z,3.53
2017-11-18T13:53:23.466Z,3.37
2017-11-18T13:55:52.532Z,9.37
2017-11-18T13:58:23.305Z,4.73
2017-11-18T14:00:51.627Z,5.33
2017-11-18T14:03:19.947Z,10.40
2017-11-18T14:05:48.368Z,10.60
2017-11-18T14:08:16.706Z,17.70
2017-11-18T14:10:45.275Z,6.00
2017-11-18T14:13:14.327Z,5.60
2017-11-18T14:15:42.604Z,4.33
2017-11-18T14:18:10.907Z,6.40
2017-11-18T14:20:39.227Z,3.70
2017-11-18T14:23:07.604Z,4.40
2017-11-18T14:25:35.903Z,3.40
2017-11-18T14:28:05.520Z,4.03
2017-11-18T14:30:33.867Z,2.80
2017-11-18T14:33:02.152Z,5.57
2017-11-18T14:35:30.836Z,3.60
2017-11-18T14:37:59.135Z,4.67
2017-11-18T14:40:27.408Z,4.50
2017-11-18T14:42:56.181Z,3.70
2017-11-18T14:45:24.451Z,3.63
2017-11-18T14:47:52.791Z,4.20
2017-11-18T14:50:21.158Z,4.60
2017-11-18T14:52:50.279Z,4.00
2017-11-18T14:55:19.457Z,4.10
2017-11-18T14:57:48.880Z,3.77
2017-11-18T15:00:18.510Z,4.50
2017-11-18T15:02:46.791Z,3.70
2017-11-18T15:05:15.070Z,5.20
2017-11-18T15:07:43.396Z,4.33
2017-11-18T15:10:12.675Z,4.83
2017-11-18T15:12:40.959Z,4.13
2017-11-18T15:15:11.820Z,4.83
2017-11-18T15:17:46.034Z,4.57
2017-11-18T15:20:35.161Z,4.23
2017-11-18T15:23:09.122Z,5.33
2017-11-18T15:25:43.164Z,4.63
2017-11-18T15:28:17.200Z,6.50
2017-11-18T15:34:07.981Z,4.80
2017-11-18T15:36:55.912Z,5.03
2017-11-18T15:39:24.376Z,5.60
2017-11-18T15:41:52.657Z,4.90
2017-11-18T15:47:21.527Z,6.80
2017-11-18T15:49:55.535Z,9.17
2017-11-18T15:52:29.543Z,5.67
2017-11-18T15:57:59.554Z,6.80
2017-11-18T16:00:32.310Z,5.50
2017-11-18T16:03:03.117Z,6.90
2017-11-18T16:05:31.457Z,7.27
2017-11-18T16:08:00.677Z,6.00
2017-11-18T16:10:29.061Z,7.17
2017-11-18T16:12:57.402Z,7.00
2017-11-18T16:15:25.729Z,6.30
2017-11-18T16:17:54.028Z,6.93
2017-11-18T16:20:22.329Z,6.10
2017-11-18T16:22:50.641Z,7.10
2017-11-18T16:25:19.780Z,7.90
2017-11-18T16:27:48.086Z,7.37
2017-11-18T16:30:16.401Z,7.33
2017-11-18T16:32:44.708Z,6.40
2017-11-18T16:35:13.051Z,6.90
2017-11-18T16:37:41.465Z,7.07
2017-11-18T16:40:09.808Z,7.80
2017-11-18T16:42:38.135Z,7.00
2017-11-18T16:45:06.452Z,7.77
2017-11-18T16:47:34.781Z,8.17
2017-11-18T16:50:03.093Z,8.33
2017-11-18T16:52:31.400Z,8.10
2017-11-18T16:54:59.823Z,9.60
2017-11-18T16:57:28.889Z,10.00
2017-11-18T16:59:57.188Z,9.27
2017-11-18T17:02:25.476Z,8.40
2017-11-18T17:04:53.779Z,7.90
2017-11-18T17:07:22.109Z,7.03
2017-11-18T17:09:51.274Z,7.53
2017-11-18T17:12:19.585Z,8.00
2017-11-18T17:14:47.884Z,7.20
2017-11-18T17:17:16.968Z,6.73
2017-11-18T17:19:45.280Z,7.50
2017-11-18T17:22:14.341Z,6.90
2017-11-18T17:24:42.749Z,6.40
2017-11-18T17:27:11.051Z,7.00
2017-11-18T17:29:39.358Z,6.70
2017-11-18T17:32:08.395Z,7.40
2017-11-18T17:34:36.923Z,6.30
2017-11-18T17:37:05.202Z,7.37
2017-11-18T17:39:33.492Z,7.70
2017-11-18T17:42:01.791Z,6.77
2017-11-18T17:44:30.114Z,6.50
2017-11-18T17:46:59.193Z,6.23
2017-11-18T17:49:27.472Z,6.70
2017-11-18T17:51:55.777Z,6.77
2017-11-18T17:54:24.085Z,8.13
2017-11-18T17:56:53.128Z,7.20
2017-11-18T17:59:21.565Z,7.00
2017-11-18T18:01:49.888Z,7.03
2017-11-18T18:04:18.939Z,7.60
2017-11-18T18:06:47.344Z,8.60
2017-11-18T18:09:15.667Z,7.07
2017-11-18T18:11:44.712Z,8.00
2017-11-18T18:14:13.861Z,7.00
2017-11-18T18:16:42.149Z,7.67
2017-11-18T18:19:10.498Z,6.77
2017-11-18T18:21:39.089Z,7.20
2017-11-18T18:24:07.428Z,6.73
2017-11-18T18:26:35.817Z,7.90
2017-11-18T18:29:04.154Z,7.43
2017-11-18T18:31:32.520Z,7.40
2017-11-18T18:34:01.006Z,6.43
2017-11-18T18:36:29.317Z,7.20
2017-11-18T18:38:57.607Z,7.50
2017-11-18T18:41:25.928Z,7.87
2017-11-18T18:43:54.229Z,7.30
2017-11-18T18:46:22.517Z,6.80
2017-11-18T18:48:50.832Z,6.47
2017-11-18T18:51:19.112Z,7.03
2017-11-18T18:53:47.429Z,7.63
2017-11-18T18:56:16.483Z,7.90
2017-11-18T18:58:44.788Z,8.37
2017-11-18T19:01:14.044Z,7.13
2017-11-18T19:03:43.157Z,7.33
2017-11-18T19:06:11.450Z,7.27
2017-11-18T19:08:39.732Z,6.50
2017-11-18T19:11:08.822Z,6.17
2017-11-18T19:13:37.096Z,5.93
2017-11-18T19:16:05.381Z,5.17
2017-11-18T19:18:35.189Z,5.97
2017-11-18T19:21:03.464Z,5.40
2017-11-18T19:23:31.776Z,5.67
2017-11-18T19:26:00.055Z,5.63
2017-11-18T19:28:28.357Z,5.80
2017-11-18T19:30:56.642Z,7.60
2017-11-18T19:33:25.153Z,8.30
2017-11-18T19:35:53.537Z,7.67
2017-11-18T19:38:22.592Z,6.60
2017-11-18T19:40:50.911Z,7.13
2017-11-18T19:43:19.207Z,6.77
2017-11-18T19:45:47.521Z,7.17
2017-11-18T19:48:15.844Z,6.93
2017-11-18T19:50:44.197Z,7.63
2017-11-18T19:53:12.504Z,16.17
2017-11-18T19:55:41.557Z,14.80
2017-11-18T19:58:09.873Z,6.60
2017-11-18T20:00:39.104Z,14.20
2017-11-18T20:03:08.175Z,8.80
2017-11-18T20:05:36.461Z,12.67
2017-11-18T20:08:04.820Z,10.20
2017-11-18T20:10:33.106Z,4.60
2017-11-18T20:13:01.389Z,5.23
2017-11-18T20:15:29.711Z,4.87
2017-11-18T20:17:58.034Z,4.80
2017-11-18T20:20:26.317Z,4.10
2017-11-18T20:22:54.595Z,4.80
2017-11-18T20:25:22.912Z,5.20
2017-11-18T20:27:51.281Z,4.33
2017-11-18T20:30:19.906Z,4.53
2017-11-18T20:32:48.200Z,4.07
2017-11-18T20:35:17.248Z,4.53
2017-11-18T20:37:45.568Z,5.47
2017-11-18T20:40:13.872Z,4.63
2017-11-18T20:42:42.169Z,4.90
2017-11-18T20:45:11.222Z,4.87
2017-11-18T20:47:39.535Z,5.10
2017-11-18T20:50:09.328Z,4.03
2017-11-18T20:52:37.636Z,5.00
2017-11-18T20:55:05.915Z,4.67
2017-11-18T20:57:34.339Z,4.77
2017-11-18T21:00:02.731Z,4.70
2017-11-18T21:02:31.037Z,4.43
2017-11-18T21:04:59.319Z,4.47
2017-11-18T21:07:30.368Z,4.93
2017-11-18T21:09:58.647Z,3.70
2017-11-18T21:12:26.989Z,4.70
2017-11-18T21:14:55.268Z,3.70
2017-11-18T21:17:23.545Z,4.60
2017-11-18T21:19:52.616Z,3.80
2017-11-18T21:22:20.934Z,5.57
2017-11-18T21:24:49.988Z,4.90
2017-11-18T21:27:18.300Z,6.00
2017-11-18T21:29:46.584Z,4.57
2017-11-18T21:32:14.884Z,4.63
2017-11-18T21:34:43.235Z,4.57
2017-11-18T21:37:11.521Z,5.57
2017-11-18T21:39:39.795Z,4.67
2017-11-18T21:42:08.107Z,5.07
2017-11-18T21:44:36.407Z,5.73
2017-11-18T21:47:04.724Z,5.47
2017-11-18T21:49:33.040Z,4.83
2017-11-18T21:52:02.165Z,4.87
2017-11-18T21:54:30.483Z,5.33
2017-11-18T21:56:58.780Z,4.37
2017-11-18T21:59:27.151Z,5.10
2017-11-18T22:01:55.425Z,4.43
2017-11-18T22:04:23.732Z,5.40
2017-11-18T22:06:52.014Z,4.70
2017-11-18T22:09:20.324Z,4.70
2017-11-18T22:11:48.623Z,6.40
2017-11-18T22:14:16.893Z,5.30
2017-11-18T22:16:45.215Z,4.37
2017-11-18T22:19:13.504Z,5.67
2017-11-18T22:21:41.825Z,4.90
2017-11-18T22:24:10.872Z,5.87
2017-11-18T22:26:39.401Z,5.67
2017-11-18T22:29:09.196Z,4.90
2017-11-18T22:31:37.501Z,5.10
2017-11-18T22:34:05.796Z,4.97
2017-11-18T22:36:34.858Z,5.10
2017-11-18T22:39:03.159Z,4.83
2017-11-18T22:41:31.479Z,5.37
2017-11-18T22:43:59.811Z,4.87
2017-11-18T22:46:28.091Z,4.07
2017-11-18T22:48:57.213Z,5.60
2017-11-18T22:51:25.510Z,4.17
2017-11-18T22:53:53.856Z,5.87
2017-11-18T22:56:23.073Z,3.73
2017-11-18T22:58:51.364Z,5.77
2017-11-18T23:01:19.667Z,4.63
2017-11-18T23:03:48.773Z,5.70
2017-11-18T23:06:17.945Z,4.70
2017-11-18T23:08:46.247Z,3.97
2017-11-18T23:11:14.631Z,5.67
2017-11-18T23:13:42.985Z,4.90
2017-11-18T23:16:11.259Z,3.90
2017-11-18T23:18:39.546Z,3.40
2017-11-18T23:21:07.874Z,4.30
2017-11-18T23:23:36.156Z,3.97
2017-11-18T23:26:04.435Z,5.23
2017-11-18T23:28:32.746Z,4.57
2017-11-18T23:31:01.045Z,4.30
2017-11-18T23:33:29.360Z,3.70
2017-11-18T23:35:58.412Z,3.60
2017-11-18T23:38:26.833Z,4.87
2017-11-18T23:40:55.120Z,4.90
2017-11-18T23:43:23.402Z,4.10
2017-11-18T23:45:51.736Z,3.83
2017-11-18T23:48:20.812Z,6.37
2017-11-18T23:50:50.044Z,4.03
2017-11-18T23:53:18.340Z,5.07
2017-11-18T23:55:47.391Z,4.53
2017-11-18T23:58:15.716Z,4.40
